Terminal Aerodrome Forecast
Issued by NWS

Home | Current Version | Previous Version | Text Only | Print | Product List | Glossary On
Versions: 1 2 3 4 5 6 7 8 9 10 11 12 13 14 15
000
FTUS45 KTFX 300338 AAA
TAFHVR
TAF AMD
KHVR 300338Z 3004/3024 09015G22KT P6SM SCT120
     FM300600 09012KT P6SM BKN120
      TEMPO 3006/3010 -SHRA BKN080
     FM301000 24008KT P6SM SKC
     FM301700 28020G30KT P6SM SCT070=

USA.gov is the U.S. government's official web portal to all federal, state and local government web resources and services.